createdAt,value
2017-06-02T00:01:32.517Z,14.60
2017-06-02T00:04:07.567Z,14.50
2017-06-02T00:06:43.299Z,14.50
2017-06-02T00:09:18.427Z,14.50
2017-06-02T00:11:53.782Z,14.50
2017-06-02T00:14:28.815Z,14.50
2017-06-02T00:17:04.084Z,14.40
2017-06-02T00:19:39.620Z,14.40
2017-06-02T00:22:14.832Z,14.40
2017-06-02T00:24:49.975Z,14.30
2017-06-02T00:27:25.308Z,14.30
2017-06-02T00:30:00.454Z,14.20
2017-06-02T00:32:35.483Z,14.30
2017-06-02T00:35:11.341Z,14.20
2017-06-02T00:37:46.473Z,14.20
2017-06-02T00:40:21.602Z,14.20
2017-06-02T00:42:56.953Z,14.20
2017-06-02T00:45:31.934Z,14.20
2017-06-02T00:48:07.225Z,14.20
2017-06-02T00:50:42.255Z,14.10
2017-06-02T00:53:17.592Z,14.10
2017-06-02T00:55:52.633Z,14.10
2017-06-02T00:58:27.966Z,14.10
2017-06-02T01:01:03.206Z,14.10
2017-06-02T01:03:38.429Z,14.00
2017-06-02T01:06:13.596Z,14.10
2017-06-02T01:08:48.823Z,14.00
2017-06-02T01:11:23.847Z,14.00
2017-06-02T01:13:59.095Z,14.00
2017-06-02T01:16:34.052Z,14.00
2017-06-02T01:19:09.258Z,14.00
2017-06-02T01:21:44.424Z,13.90
2017-06-02T01:24:19.592Z,13.90
2017-06-02T01:26:54.719Z,13.90
2017-06-02T01:29:29.980Z,13.90
2017-06-02T01:32:04.959Z,13.90
2017-06-02T01:34:40.199Z,13.80
2017-06-02T01:37:15.223Z,13.80
2017-06-02T01:39:50.703Z,13.80
2017-06-02T01:42:25.627Z,13.70
2017-06-02T01:45:00.930Z,13.70
2017-06-02T01:47:36.081Z,13.60
2017-06-02T01:50:11.307Z,13.60
2017-06-02T01:52:46.239Z,13.60
2017-06-02T01:55:21.591Z,13.60
2017-06-02T01:57:57.051Z,13.50
2017-06-02T02:00:32.367Z,13.50
2017-06-02T02:03:07.311Z,13.60
2017-06-02T02:05:42.642Z,13.50
2017-06-02T02:08:17.784Z,13.50
2017-06-02T02:10:52.890Z,13.40
2017-06-02T02:13:27.856Z,13.40
2017-06-02T02:16:02.889Z,13.40
2017-06-02T02:18:37.881Z,13.40
2017-06-02T02:21:13.135Z,13.30
2017-06-02T02:23:48.318Z,13.40
2017-06-02T02:26:23.630Z,13.30
2017-06-02T02:28:58.772Z,13.30
2017-06-02T02:31:34.212Z,13.20
2017-06-02T02:34:09.363Z,13.20
2017-06-02T02:36:44.595Z,13.20
2017-06-02T02:39:19.589Z,13.20
2017-06-02T02:41:54.847Z,13.10
2017-06-02T02:44:29.983Z,13.10
2017-06-02T02:47:05.477Z,13.10
2017-06-02T02:49:40.475Z,13.10
2017-06-02T02:52:15.911Z,13.10
2017-06-02T02:54:51.056Z,13.10
2017-06-02T02:57:26.207Z,13.00
2017-06-02T03:00:01.327Z,13.00
2017-06-02T03:02:36.378Z,13.00
2017-06-02T03:05:11.507Z,13.00
2017-06-02T03:07:46.737Z,12.90
2017-06-02T03:10:21.765Z,13.00
2017-06-02T03:12:56.906Z,12.90
2017-06-02T03:15:31.846Z,13.00
2017-06-02T03:18:06.879Z,13.00
2017-06-02T03:20:41.866Z,13.00
2017-06-02T03:23:17.154Z,13.00
2017-06-02T03:25:52.186Z,13.00
2017-06-02T03:28:27.415Z,13.00
2017-06-02T03:31:02.303Z,13.00
2017-06-02T03:33:37.699Z,13.00
2017-06-02T03:36:12.836Z,13.10
2017-06-02T03:38:48.070Z,13.10
2017-06-02T03:41:22.956Z,13.20
2017-06-02T03:43:58.217Z,13.20
2017-06-02T03:46:33.295Z,13.30
2017-06-02T03:49:08.717Z,13.30
2017-06-02T03:51:43.815Z,13.40
2017-06-02T03:54:18.930Z,13.50
2017-06-02T03:56:53.932Z,13.60
2017-06-02T03:59:29.055Z,13.60
2017-06-02T04:02:04.198Z,13.80
2017-06-02T04:04:39.526Z,13.80
2017-06-02T04:07:15.489Z,13.90
2017-06-02T04:09:50.834Z,14.00
2017-06-02T04:12:25.972Z,14.10
2017-06-02T04:15:01.073Z,14.20
2017-06-02T04:17:36.010Z,14.20
2017-06-02T04:20:11.272Z,14.30
2017-06-02T04:22:46.207Z,14.40
2017-06-02T04:25:21.545Z,14.50
2017-06-02T04:27:56.945Z,14.50
2017-06-02T04:30:32.038Z,14.60
2017-06-02T04:33:07.066Z,14.60
2017-06-02T04:35:42.504Z,14.70
2017-06-02T04:38:17.847Z,14.70
2017-06-02T04:40:53.182Z,14.70
2017-06-02T04:43:28.317Z,14.70
2017-06-02T04:46:03.558Z,14.80
2017-06-02T04:48:38.905Z,14.80
2017-06-02T04:51:14.036Z,14.90
2017-06-02T04:53:49.182Z,14.90
2017-06-02T04:56:24.254Z,14.90
2017-06-02T04:58:59.362Z,15.00
2017-06-02T05:01:34.682Z,15.00
2017-06-02T05:04:09.772Z,15.10
2017-06-02T05:06:44.792Z,15.20
2017-06-02T05:09:20.134Z,15.20
2017-06-02T05:11:55.570Z,15.30
2017-06-02T05:14:30.678Z,15.40
2017-06-02T05:17:06.012Z,15.50
2017-06-02T05:19:41.020Z,15.50
2017-06-02T05:22:16.388Z,15.60
2017-06-02T05:24:51.443Z,15.60
2017-06-02T05:27:26.864Z,15.70
2017-06-02T05:30:02.005Z,15.90
2017-06-02T05:32:37.351Z,15.90
2017-06-02T05:35:12.514Z,16.00
2017-06-02T05:37:47.675Z,16.10
2017-06-02T05:40:22.652Z,16.30
2017-06-02T05:42:57.882Z,16.40
2017-06-02T05:45:33.055Z,16.50
2017-06-02T05:48:08.364Z,16.50
2017-06-02T05:50:43.386Z,16.60
2017-06-02T05:53:18.737Z,16.80
2017-06-02T05:55:54.290Z,16.90
2017-06-02T05:58:29.391Z,17.00
2017-06-02T06:01:04.505Z,17.10
2017-06-02T06:03:39.896Z,17.20
2017-06-02T06:06:15.135Z,17.20
2017-06-02T06:08:50.384Z,17.30
2017-06-02T06:11:25.540Z,17.40
2017-06-02T06:14:00.756Z,17.50
2017-06-02T06:16:35.901Z,17.60
2017-06-02T06:19:11.539Z,17.60
2017-06-02T06:21:46.707Z,17.70
2017-06-02T06:24:21.914Z,17.70
2017-06-02T06:26:56.865Z,17.90
2017-06-02T06:29:32.055Z,17.90
2017-06-02T06:32:07.331Z,18.10
2017-06-02T06:34:42.671Z,18.20
2017-06-02T06:37:17.614Z,18.30
2017-06-02T06:39:53.036Z,18.40
2017-06-02T06:42:27.979Z,18.40
2017-06-02T06:45:03.539Z,18.50
2017-06-02T06:47:38.539Z,18.60
2017-06-02T06:50:13.887Z,18.70
2017-06-02T06:52:42.894Z,18.80
2017-06-02T06:55:11.783Z,18.80
2017-06-02T06:57:40.680Z,18.90
2017-06-02T07:00:09.560Z,19.00
2017-06-02T07:02:38.452Z,19.10
2017-06-02T07:05:07.274Z,19.20
2017-06-02T07:07:36.552Z,19.30
2017-06-02T07:10:05.728Z,19.50
2017-06-02T07:12:34.827Z,19.60
2017-06-02T07:15:03.942Z,19.70
2017-06-02T07:17:32.995Z,19.70
2017-06-02T07:20:02.112Z,19.80
2017-06-02T07:22:31.344Z,19.90
2017-06-02T07:25:00.339Z,20.00
2017-06-02T07:27:29.192Z,20.10
2017-06-02T07:29:58.026Z,20.10
2017-06-02T07:32:26.904Z,20.20
2017-06-02T07:34:55.812Z,20.30
2017-06-02T07:37:24.845Z,20.40
2017-06-02T07:39:53.695Z,20.40
2017-06-02T07:42:22.533Z,20.50
2017-06-02T07:44:51.370Z,20.50
2017-06-02T07:47:20.423Z,20.60
2017-06-02T07:49:49.314Z,20.60
2017-06-02T07:52:18.183Z,20.70
2017-06-02T07:54:47.087Z,20.80
2017-06-02T07:57:15.952Z,20.90
2017-06-02T07:59:45.168Z,20.90
2017-06-02T08:02:14.022Z,21.00
2017-06-02T08:04:42.842Z,21.00
2017-06-02T08:07:11.866Z,21.10
2017-06-02T08:09:40.687Z,21.10
2017-06-02T08:12:09.651Z,21.20
2017-06-02T08:14:38.513Z,21.30
2017-06-02T08:17:07.903Z,21.40
2017-06-02T08:19:36.756Z,21.40
2017-06-02T08:22:05.604Z,21.40
2017-06-02T08:24:34.456Z,21.50
2017-06-02T08:27:03.300Z,21.50
2017-06-02T08:29:32.254Z,21.60
2017-06-02T08:32:01.152Z,21.80
2017-06-02T08:34:29.991Z,21.80
2017-06-02T08:36:58.934Z,22.00
2017-06-02T08:39:27.751Z,22.10
2017-06-02T08:41:56.854Z,22.20
2017-06-02T08:44:25.687Z,22.20
2017-06-02T08:46:54.663Z,22.20
2017-06-02T08:49:23.511Z,22.30
2017-06-02T08:51:52.369Z,22.40
2017-06-02T08:54:21.271Z,22.50
2017-06-02T08:56:50.454Z,22.50
2017-06-02T08:59:19.759Z,22.40
2017-06-02T09:01:48.963Z,22.30
2017-06-02T09:04:18.151Z,22.30
2017-06-02T09:06:47.283Z,22.30
2017-06-02T09:09:16.423Z,22.40
2017-06-02T09:11:45.739Z,22.30
2017-06-02T09:14:14.839Z,22.40
2017-06-02T09:16:43.926Z,22.50
2017-06-02T09:19:13.163Z,22.60
2017-06-02T09:21:42.422Z,22.60
2017-06-02T09:24:11.539Z,22.70
2017-06-02T09:26:40.725Z,22.80
2017-06-02T09:29:10.175Z,22.90
2017-06-02T09:31:39.327Z,22.90
2017-06-02T09:34:08.511Z,22.90
2017-06-02T09:36:37.651Z,22.90
2017-06-02T09:39:06.759Z,23.00
2017-06-02T09:41:36.219Z,23.00
2017-06-02T09:44:05.329Z,23.10
2017-06-02T09:46:34.498Z,23.20
2017-06-02T09:49:03.715Z,23.20
2017-06-02T09:51:33.000Z,23.10
2017-06-02T09:54:02.118Z,23.20
2017-06-02T09:56:31.295Z,23.30
2017-06-02T09:59:00.598Z,23.40
2017-06-02T10:01:29.784Z,23.40
2017-06-02T10:03:58.903Z,23.40
2017-06-02T10:06:28.084Z,23.50
2017-06-02T10:08:57.199Z,23.60
2017-06-02T10:11:26.380Z,23.60
2017-06-02T10:13:55.476Z,23.80
2017-06-02T10:16:24.728Z,23.80
2017-06-02T10:18:53.863Z,23.90
2017-06-02T10:21:23.802Z,23.80
2017-06-02T10:23:52.914Z,23.90
2017-06-02T10:26:22.011Z,23.90
2017-06-02T10:28:51.415Z,24.00
2017-06-02T10:31:20.519Z,24.10
2017-06-02T10:33:49.611Z,24.10
2017-06-02T10:36:18.724Z,24.20
2017-06-02T10:38:47.835Z,24.30
2017-06-02T10:41:16.954Z,24.40
2017-06-02T10:43:46.143Z,24.50
2017-06-02T10:46:15.430Z,24.50
2017-06-02T10:48:44.641Z,24.60
2017-06-02T10:51:13.747Z,24.50
2017-06-02T10:53:42.871Z,24.40
2017-06-02T10:56:11.976Z,24.50
2017-06-02T10:58:41.387Z,24.60
2017-06-02T11:01:10.492Z,24.70
2017-06-02T11:03:39.604Z,24.90
2017-06-02T11:06:08.824Z,25.40
2017-06-02T11:08:38.122Z,25.80
2017-06-02T11:11:07.226Z,26.10
2017-06-02T11:13:36.402Z,26.00
2017-06-02T11:16:05.805Z,25.90
2017-06-02T11:18:34.918Z,25.80
2017-06-02T11:21:04.031Z,25.70
2017-06-02T11:23:33.160Z,25.60
2017-06-02T11:26:02.292Z,25.50
2017-06-02T11:28:31.527Z,25.40
2017-06-02T11:31:00.707Z,25.40
2017-06-02T11:33:29.886Z,25.30
2017-06-02T11:35:59.015Z,25.30
2017-06-02T11:38:28.123Z,25.20
2017-06-02T11:40:57.435Z,25.10
2017-06-02T11:43:26.530Z,25.00
2017-06-02T11:45:55.795Z,25.10
2017-06-02T11:48:24.965Z,25.10
2017-06-02T11:50:54.067Z,25.10
2017-06-02T11:53:23.234Z,25.10
2017-06-02T11:55:52.442Z,25.20
2017-06-02T11:58:21.857Z,25.20
2017-06-02T12:00:51.146Z,25.30
2017-06-02T12:03:20.242Z,25.30
2017-06-02T12:05:49.551Z,25.30
2017-06-02T12:08:18.779Z,25.20
2017-06-02T12:10:48.150Z,25.20
2017-06-02T12:13:17.252Z,25.20
2017-06-02T12:15:46.752Z,25.20
2017-06-02T12:18:16.091Z,25.30
2017-06-02T12:20:45.274Z,25.40
2017-06-02T12:23:14.751Z,25.60
2017-06-02T12:25:43.947Z,25.70
2017-06-02T12:28:13.029Z,25.80
2017-06-02T12:30:42.159Z,25.80
2017-06-02T12:33:11.259Z,25.80
2017-06-02T12:35:40.936Z,25.80
2017-06-02T12:38:10.640Z,25.70
2017-06-02T12:40:39.737Z,25.80
2017-06-02T12:43:10.051Z,25.80
2017-06-02T12:45:39.571Z,25.80
2017-06-02T12:48:08.863Z,25.90
2017-06-02T12:50:39.291Z,25.90
2017-06-02T12:53:08.438Z,25.80
2017-06-02T12:55:37.575Z,26.00
2017-06-02T12:58:06.658Z,26.00
2017-06-02T13:00:36.701Z,26.00
2017-06-02T13:03:06.264Z,26.10
2017-06-02T13:05:35.608Z,26.20
2017-06-02T13:08:05.110Z,26.30
2017-06-02T13:10:37.491Z,26.50
2017-06-02T13:13:06.680Z,26.50
2017-06-02T13:15:35.778Z,26.30
2017-06-02T13:18:04.906Z,26.10
2017-06-02T13:20:34.011Z,26.20
2017-06-02T13:23:03.261Z,26.30
2017-06-02T13:25:33.179Z,26.50
2017-06-02T13:28:02.379Z,26.70
2017-06-02T13:30:31.677Z,26.90
2017-06-02T13:33:00.795Z,27.00
2017-06-02T13:35:30.271Z,27.20
2017-06-02T13:37:59.391Z,27.20
2017-06-02T13:40:28.566Z,27.20
2017-06-02T13:42:57.717Z,27.20
2017-06-02T13:45:26.797Z,27.30
2017-06-02T13:47:56.150Z,27.20
2017-06-02T13:50:25.346Z,27.00
2017-06-02T13:52:54.547Z,26.90
2017-06-02T13:55:23.675Z,26.80
2017-06-02T13:57:52.839Z,26.80
2017-06-02T14:00:22.319Z,27.00
2017-06-02T14:02:51.543Z,27.20
2017-06-02T14:05:20.641Z,27.30
2017-06-02T14:07:49.762Z,27.30
2017-06-02T14:10:18.939Z,27.40
2017-06-02T14:12:48.231Z,27.60
2017-06-02T14:15:17.343Z,27.80
2017-06-02T14:17:46.623Z,28.00
2017-06-02T14:20:15.923Z,28.10
2017-06-02T14:22:45.126Z,28.10
2017-06-02T14:25:14.227Z,27.70
2017-06-02T14:27:43.348Z,27.50
2017-06-02T14:30:12.451Z,27.50
2017-06-02T14:32:41.927Z,27.40
2017-06-02T14:35:11.028Z,27.20
2017-06-02T14:37:40.209Z,27.20
2017-06-02T14:40:09.323Z,27.20
2017-06-02T14:42:38.422Z,27.20
2017-06-02T14:45:07.763Z,27.20
2017-06-02T14:47:36.867Z,27.40
2017-06-02T14:50:06.283Z,27.60
2017-06-02T14:52:35.398Z,27.70
2017-06-02T14:55:04.485Z,28.00
2017-06-02T14:57:33.619Z,28.20
2017-06-02T15:00:02.915Z,28.50
2017-06-02T15:02:32.177Z,28.60
2017-06-02T15:05:01.387Z,28.50
2017-06-02T15:07:30.525Z,28.60
2017-06-02T15:09:59.593Z,29.00
2017-06-02T15:12:28.762Z,29.70
2017-06-02T15:14:57.895Z,30.30
2017-06-02T15:17:27.066Z,31.00
2017-06-02T15:19:56.352Z,31.90
2017-06-02T15:22:25.549Z,32.50
2017-06-02T15:24:54.642Z,32.90
2017-06-02T15:27:23.831Z,33.40
2017-06-02T15:29:53.030Z,34.50
2017-06-02T15:32:22.158Z,35.30
2017-06-02T15:34:51.327Z,35.60
2017-06-02T15:37:20.631Z,35.90
2017-06-02T15:39:49.878Z,36.10
2017-06-02T15:42:18.987Z,35.90
2017-06-02T15:44:48.120Z,36.00
2017-06-02T15:47:17.231Z,36.60
2017-06-02T15:49:46.578Z,37.50
2017-06-02T15:52:15.680Z,38.00
2017-06-02T15:54:44.915Z,38.40
2017-06-02T15:57:14.011Z,38.60
2017-06-02T15:59:43.131Z,37.90
2017-06-02T16:02:12.371Z,38.30
2017-06-02T16:04:41.471Z,38.50
2017-06-02T16:07:10.588Z,38.90
2017-06-02T16:09:39.730Z,38.50
2017-06-02T16:12:08.826Z,37.70
2017-06-02T16:14:38.065Z,37.00
2017-06-02T16:17:07.185Z,37.20
2017-06-02T16:19:36.290Z,37.60
2017-06-02T16:22:05.414Z,38.30
2017-06-02T16:24:34.535Z,39.00
2017-06-02T16:27:03.664Z,39.40
2017-06-02T16:29:32.812Z,39.40
2017-06-02T16:32:02.066Z,39.30
2017-06-02T16:34:31.184Z,39.00
2017-06-02T16:37:00.291Z,39.40
2017-06-02T16:39:29.534Z,40.30
2017-06-02T16:41:58.611Z,41.00
2017-06-02T16:44:27.726Z,40.80
2017-06-02T16:46:56.831Z,40.80
2017-06-02T16:49:26.294Z,40.60
2017-06-02T16:51:55.407Z,40.70
2017-06-02T16:54:24.499Z,41.10
2017-06-02T16:56:53.630Z,40.80
2017-06-02T16:59:22.825Z,41.00
2017-06-02T17:01:51.192Z,40.90
2017-06-02T17:04:20.382Z,41.30
2017-06-02T17:06:49.670Z,41.20
2017-06-02T17:09:18.878Z,41.20
2017-06-02T17:11:47.975Z,41.00
2017-06-02T17:14:17.110Z,40.20
2017-06-02T17:16:46.219Z,39.60
2017-06-02T17:19:15.356Z,39.80
2017-06-02T17:21:44.439Z,39.30
2017-06-02T17:24:13.564Z,39.00
2017-06-02T17:26:42.649Z,38.70
2017-06-02T17:29:12.142Z,38.30
2017-06-02T17:31:41.237Z,38.20
2017-06-02T17:34:10.346Z,38.20
2017-06-02T17:36:39.486Z,38.20
2017-06-02T17:39:08.599Z,37.80
2017-06-02T17:41:38.051Z,37.40
2017-06-02T17:44:07.147Z,37.00
2017-06-02T17:46:36.426Z,36.00
2017-06-02T17:49:05.546Z,35.50
2017-06-02T17:51:34.643Z,34.60
2017-06-02T17:54:03.766Z,33.80
2017-06-02T17:56:32.862Z,33.20
2017-06-02T17:59:01.978Z,32.80
2017-06-02T18:01:31.195Z,32.20
2017-06-02T18:04:00.605Z,31.50
2017-06-02T18:06:29.658Z,30.90
2017-06-02T18:08:58.787Z,30.40
2017-06-02T18:11:27.979Z,30.00
2017-06-02T18:13:57.186Z,29.50
2017-06-02T18:16:26.480Z,28.90
2017-06-02T18:18:55.581Z,28.40
2017-06-02T18:21:24.689Z,28.00
2017-06-02T18:23:53.792Z,27.60
2017-06-02T18:26:23.013Z,27.30
2017-06-02T18:28:53.499Z,26.90
2017-06-02T18:31:22.592Z,26.60
2017-06-02T18:33:52.014Z,26.40
2017-06-02T18:36:21.179Z,26.20
2017-06-02T18:38:50.283Z,26.10
2017-06-02T18:41:19.386Z,25.90
2017-06-02T18:43:48.446Z,25.70
2017-06-02T18:46:17.671Z,25.50
2017-06-02T18:48:46.743Z,25.30
2017-06-02T18:51:15.880Z,25.00
2017-06-02T18:53:44.989Z,24.80
2017-06-02T18:56:14.066Z,24.70
2017-06-02T18:58:43.159Z,24.50
2017-06-02T19:01:12.386Z,24.40
2017-06-02T19:03:41.508Z,24.20
2017-06-02T19:06:10.827Z,24.00
2017-06-02T19:08:40.035Z,23.90
2017-06-02T19:11:09.085Z,23.70
2017-06-02T19:13:38.190Z,23.60
2017-06-02T19:16:07.267Z,23.50
2017-06-02T19:18:36.466Z,23.40
2017-06-02T19:21:05.612Z,23.30
2017-06-02T19:23:34.704Z,23.10
2017-06-02T19:26:03.862Z,22.90
2017-06-02T19:28:32.968Z,22.80
2017-06-02T19:31:02.184Z,22.70
2017-06-02T19:33:31.262Z,22.60
2017-06-02T19:36:00.343Z,22.50
2017-06-02T19:38:29.495Z,22.30
2017-06-02T19:40:58.610Z,22.30
2017-06-02T19:43:28.092Z,22.20
2017-06-02T19:45:57.271Z,22.10
2017-06-02T19:48:26.340Z,22.00
2017-06-02T19:50:55.468Z,21.90
2017-06-02T19:53:24.787Z,21.80
2017-06-02T19:55:53.973Z,21.70
2017-06-02T19:58:23.040Z,21.70
2017-06-02T20:00:52.185Z,21.60
2017-06-02T20:03:21.269Z,21.50
2017-06-02T20:05:50.547Z,21.50
2017-06-02T20:08:19.629Z,21.30
2017-06-02T20:10:48.683Z,21.30
2017-06-02T20:13:17.986Z,21.20
2017-06-02T20:15:47.058Z,21.10
2017-06-02T20:18:16.153Z,21.10
2017-06-02T20:20:45.311Z,21.00
2017-06-02T20:23:14.616Z,20.90
2017-06-02T20:25:43.687Z,20.80
2017-06-02T20:28:12.806Z,20.80
2017-06-02T20:30:42.108Z,20.70
2017-06-02T20:33:11.159Z,20.70
2017-06-02T20:35:40.274Z,20.60
2017-06-02T20:38:09.526Z,20.60
2017-06-02T20:40:39.151Z,20.60
2017-06-02T20:43:08.302Z,20.50
2017-06-02T20:45:37.605Z,20.50
2017-06-02T20:48:06.672Z,20.50
2017-06-02T20:50:35.748Z,20.50
2017-06-02T20:53:04.883Z,20.50
2017-06-02T20:55:33.950Z,20.40
2017-06-02T20:58:03.056Z,20.40
2017-06-02T21:00:32.163Z,20.40
2017-06-02T21:03:01.458Z,20.40
2017-06-02T21:05:30.557Z,20.40
2017-06-02T21:07:59.652Z,20.30
2017-06-02T21:10:28.844Z,20.20
2017-06-02T21:12:57.938Z,20.20
2017-06-02T21:15:27.242Z,20.20
2017-06-02T21:17:56.334Z,20.10
2017-06-02T21:20:25.431Z,20.10
2017-06-02T21:22:54.829Z,20.10
2017-06-02T21:25:23.931Z,20.10
2017-06-02T21:27:53.025Z,20.10
2017-06-02T21:30:22.108Z,20.10
2017-06-02T21:32:51.220Z,20.10
2017-06-02T21:35:20.308Z,20.10
2017-06-02T21:37:49.357Z,20.10
2017-06-02T21:40:18.503Z,20.10
2017-06-02T21:42:47.612Z,20.10
2017-06-02T21:45:16.707Z,20.00
2017-06-02T21:47:46.012Z,20.00
2017-06-02T21:50:15.183Z,20.10
2017-06-02T21:52:44.608Z,20.10
2017-06-02T21:55:13.660Z,20.20
2017-06-02T21:57:42.777Z,20.30
2017-06-02T22:00:11.859Z,20.40
2017-06-02T22:02:40.970Z,20.40
2017-06-02T22:05:10.387Z,20.50
2017-06-02T22:07:40.500Z,20.50
2017-06-02T22:10:09.590Z,20.50
2017-06-02T22:12:38.675Z,20.50
2017-06-02T22:15:07.977Z,20.40
2017-06-02T22:17:37.048Z,20.50
2017-06-02T22:20:06.584Z,20.40
2017-06-02T22:22:35.658Z,20.50
2017-06-02T22:25:04.767Z,20.50
2017-06-02T22:27:33.964Z,20.50
2017-06-02T22:30:03.997Z,20.50
2017-06-02T22:32:33.285Z,20.50
2017-06-02T22:35:02.360Z,20.50
2017-06-02T22:37:31.467Z,20.60
2017-06-02T22:40:00.590Z,20.60
2017-06-02T22:42:29.766Z,20.70
2017-06-02T22:44:58.847Z,20.70
2017-06-02T22:47:27.930Z,20.80
2017-06-02T22:49:57.252Z,20.90
2017-06-02T22:52:26.377Z,20.90
2017-06-02T22:54:55.540Z,20.90
2017-06-02T22:57:24.730Z,20.90
2017-06-02T22:59:53.785Z,20.90
2017-06-02T23:02:22.939Z,20.80
2017-06-02T23:04:52.016Z,20.70
2017-06-02T23:07:21.523Z,20.60
2017-06-02T23:10:23.115Z,20.60
2017-06-02T23:12:51.657Z,20.50
2017-06-02T23:15:20.044Z,20.50
2017-06-02T23:17:48.583Z,20.40
2017-06-02T23:20:16.895Z,20.40
2017-06-02T23:22:45.208Z,20.30
2017-06-02T23:25:13.550Z,20.20
2017-06-02T23:27:41.870Z,20.20
2017-06-02T23:30:10.215Z,20.20
2017-06-02T23:32:38.579Z,20.10
2017-06-02T23:35:07.671Z,20.10
2017-06-02T23:37:36.053Z,20.00
2017-06-02T23:40:05.761Z,19.90
2017-06-02T23:42:34.342Z,19.80
2017-06-02T23:45:02.765Z,19.80
2017-06-02T23:47:31.306Z,19.70
2017-06-02T23:49:59.792Z,19.70
2017-06-02T23:52:28.162Z,19.50
2017-06-02T23:54:56.643Z,19.50
2017-06-02T23:57:24.958Z,19.40
2017-06-02T23:59:53.298Z,19.40
